createdAt,value
2022-07-25T00:01:47.376Z,2.83
2022-07-25T00:04:14.769Z,2.95
2022-07-25T00:06:42.628Z,3.07
2022-07-25T00:09:09.971Z,2.50
2022-07-25T00:11:37.325Z,2.57
2022-07-25T00:14:04.985Z,3.23
2022-07-25T00:16:32.176Z,2.70
2022-07-25T00:18:58.942Z,3.00
2022-07-25T00:21:25.928Z,3.17
2022-07-25T00:23:52.754Z,3.55
2022-07-25T00:26:19.721Z,3.28
2022-07-25T00:28:46.428Z,3.53
2022-07-25T00:31:13.232Z,2.85
2022-07-25T00:33:40.351Z,3.00
2022-07-25T00:36:10.130Z,3.40
2022-07-25T00:38:37.033Z,3.28
2022-07-25T00:41:04.876Z,3.13
2022-07-25T00:43:32.110Z,3.35
2022-07-25T00:45:59.374Z,3.13
2022-07-25T00:48:27.867Z,3.08
2022-07-25T00:53:22.908Z,3.13
2022-07-25T00:55:49.709Z,3.83
2022-07-25T00:58:16.615Z,3.40
2022-07-25T01:00:43.403Z,3.20
2022-07-25T01:03:10.791Z,3.72
2022-07-25T01:05:37.573Z,3.58
2022-07-25T01:08:04.785Z,3.45
2022-07-25T01:10:33.366Z,3.67
2022-07-25T01:13:00.284Z,3.30
2022-07-25T01:15:27.818Z,3.60
2022-07-25T01:17:54.934Z,3.97
2022-07-25T01:20:26.987Z,3.45
2022-07-25T01:22:54.191Z,3.55
2022-07-25T01:25:21.346Z,3.77
2022-07-25T01:27:54.787Z,3.55
2022-07-25T01:30:24.029Z,3.53
2022-07-25T01:32:51.556Z,3.72
2022-07-25T01:35:18.450Z,4.00
2022-07-25T01:37:45.969Z,3.70
2022-07-25T01:40:14.402Z,3.63
2022-07-25T01:45:09.150Z,3.60
2022-07-25T01:47:35.995Z,3.60
2022-07-25T01:50:02.923Z,3.70
2022-07-25T01:52:31.834Z,4.00
2022-07-25T01:54:58.617Z,3.58
2022-07-25T01:57:30.124Z,3.63
2022-07-25T01:59:57.631Z,3.97
2022-07-25T02:02:24.472Z,3.88
2022-07-25T02:04:51.300Z,3.40
2022-07-25T02:07:18.150Z,4.20
2022-07-25T02:09:44.897Z,3.60
2022-07-25T02:12:11.700Z,4.50
2022-07-25T02:14:38.532Z,4.30
2022-07-25T02:17:05.365Z,3.85
2022-07-25T02:19:32.325Z,3.95
2022-07-25T02:21:59.152Z,4.43
2022-07-25T02:24:26.041Z,4.13
2022-07-25T02:26:52.745Z,3.75
2022-07-25T02:29:21.885Z,4.13
2022-07-25T02:31:49.489Z,4.32
2022-07-25T02:34:16.194Z,4.57
2022-07-25T02:36:43.349Z,4.20
2022-07-25T02:39:10.156Z,4.07
2022-07-25T02:41:36.934Z,4.30
2022-07-25T02:44:05.199Z,3.95
2022-07-25T02:46:32.661Z,4.13
2022-07-25T02:48:59.690Z,4.83
2022-07-25T02:51:26.503Z,4.63
2022-07-25T02:54:09.058Z,4.22
2022-07-25T02:56:35.825Z,4.70
2022-07-25T02:59:02.602Z,4.75
2022-07-25T03:01:29.540Z,4.20
2022-07-25T03:03:56.551Z,4.82
2022-07-25T03:06:23.319Z,4.65
2022-07-25T03:08:50.037Z,5.07
2022-07-25T03:11:16.898Z,5.05
2022-07-25T03:13:43.961Z,5.05
2022-07-25T03:16:11.102Z,4.55
2022-07-25T03:18:38.109Z,5.03
2022-07-25T03:21:05.335Z,5.63
2022-07-25T03:23:32.053Z,5.17
2022-07-25T03:25:58.955Z,4.90
2022-07-25T03:28:25.989Z,4.90
2022-07-25T03:30:53.357Z,4.63
2022-07-25T03:33:20.147Z,4.72
2022-07-25T03:35:47.171Z,4.57
2022-07-25T03:38:13.846Z,5.20
2022-07-25T03:40:40.824Z,4.40
2022-07-25T03:43:07.522Z,5.13
2022-07-25T03:45:34.463Z,4.72
2022-07-25T03:48:02.528Z,5.45
2022-07-25T03:50:29.509Z,5.28
2022-07-25T03:52:56.294Z,5.60
2022-07-25T03:55:23.081Z,4.95
2022-07-25T03:57:50.666Z,4.93
2022-07-25T04:00:17.894Z,5.20
2022-07-25T04:02:45.764Z,5.83
2022-07-25T04:05:12.573Z,5.68
2022-07-25T04:07:39.511Z,5.47
2022-07-25T04:10:07.633Z,5.63
2022-07-25T04:12:34.745Z,5.85
2022-07-25T04:15:01.744Z,5.72
2022-07-25T04:17:28.514Z,6.15
2022-07-25T04:19:55.889Z,5.73
2022-07-25T04:22:25.807Z,6.22
2022-07-25T04:24:52.799Z,6.00
2022-07-25T04:27:19.567Z,4.95
2022-07-25T04:29:46.342Z,6.07
2022-07-25T04:32:13.783Z,5.97
2022-07-25T04:34:40.919Z,6.55
2022-07-25T04:37:07.673Z,6.05
2022-07-25T04:39:34.396Z,6.65
2022-07-25T04:42:01.572Z,6.85
2022-07-25T04:44:28.457Z,6.78
2022-07-25T04:46:55.233Z,7.18
2022-07-25T04:49:22.050Z,6.88
2022-07-25T04:51:48.937Z,6.53
2022-07-25T04:54:15.648Z,6.40
2022-07-25T04:56:42.489Z,6.72
2022-07-25T04:59:09.267Z,6.25
2022-07-25T05:01:36.023Z,5.70
2022-07-25T05:04:02.923Z,6.75
2022-07-25T05:06:29.903Z,6.30
2022-07-25T05:08:56.620Z,7.57
2022-07-25T05:11:23.399Z,6.82
2022-07-25T05:13:50.205Z,6.13
2022-07-25T05:16:17.065Z,5.65
2022-07-25T05:18:43.819Z,6.40
2022-07-25T05:21:12.463Z,6.28
2022-07-25T05:23:39.585Z,6.85
2022-07-25T05:26:06.508Z,7.13
2022-07-25T05:28:33.378Z,6.53
2022-07-25T05:31:00.306Z,7.03
2022-07-25T05:33:27.144Z,7.00
2022-07-25T05:35:53.922Z,7.15
2022-07-25T05:38:21.174Z,6.47
2022-07-25T05:40:48.252Z,6.65
2022-07-25T05:43:14.964Z,6.07
2022-07-25T05:45:41.755Z,6.57
2022-07-25T05:48:08.560Z,7.35
2022-07-25T05:50:37.262Z,6.53
2022-07-25T05:53:04.074Z,7.20
2022-07-25T05:55:30.897Z,7.38
2022-07-25T05:57:57.891Z,6.63
2022-07-25T06:00:25.510Z,6.03
2022-07-25T06:02:52.396Z,7.18
2022-07-25T06:05:19.156Z,7.93
2022-07-25T06:07:45.888Z,6.75
2022-07-25T06:10:12.590Z,7.60
2022-07-25T06:12:39.325Z,7.18
2022-07-25T06:15:07.968Z,8.32
2022-07-25T06:17:39.399Z,8.25
2022-07-25T06:20:06.627Z,8.98
2022-07-25T06:22:33.360Z,7.32
2022-07-25T06:25:02.524Z,7.45
2022-07-25T06:27:29.647Z,6.53
2022-07-25T06:29:56.677Z,5.22
2022-07-25T06:32:23.440Z,4.75
2022-07-25T06:34:50.414Z,4.30
2022-07-25T06:37:17.281Z,4.35
2022-07-25T06:39:45.916Z,3.85
2022-07-25T06:42:13.082Z,3.65
2022-07-25T06:44:40.223Z,3.15
2022-07-25T06:47:12.509Z,2.85
2022-07-25T06:49:40.682Z,2.47
2022-07-25T06:54:34.561Z,1.77
2022-07-25T06:57:01.348Z,1.85
2022-07-25T06:59:28.173Z,1.77
2022-07-25T07:01:54.936Z,1.60
2022-07-25T07:04:21.791Z,2.10
2022-07-25T07:06:48.636Z,1.85
2022-07-25T07:09:15.440Z,1.58
2022-07-25T07:11:42.225Z,1.90
2022-07-25T07:14:11.812Z,1.35
2022-07-25T07:16:42.403Z,1.67
2022-07-25T07:19:11.111Z,1.55
2022-07-25T07:21:38.175Z,1.10
2022-07-25T07:24:05.525Z,1.27
2022-07-25T07:26:50.808Z,1.35
2022-07-25T07:29:17.627Z,1.33
2022-07-25T07:31:44.498Z,1.50
2022-07-25T07:34:11.453Z,1.60
2022-07-25T07:36:42.943Z,1.33
2022-07-25T07:39:09.873Z,1.50
2022-07-25T07:41:36.856Z,1.02
2022-07-25T07:44:04.923Z,1.60
2022-07-25T07:46:31.848Z,1.30
2022-07-25T07:48:59.706Z,1.33
2022-07-25T07:51:26.620Z,1.10
2022-07-25T07:54:14.007Z,1.42
2022-07-25T07:56:41.924Z,1.30
2022-07-25T07:59:08.915Z,1.00
2022-07-25T08:01:35.980Z,1.03
2022-07-25T08:04:02.819Z,0.90
2022-07-25T08:06:29.783Z,0.68
2022-07-25T08:08:56.543Z,0.77
2022-07-25T08:11:23.467Z,0.70
2022-07-25T08:13:50.306Z,1.00
2022-07-25T08:16:17.236Z,0.60
2022-07-25T08:18:44.285Z,0.73
2022-07-25T08:21:11.846Z,0.82
2022-07-25T08:23:39.051Z,0.65
2022-07-25T08:26:06.738Z,0.80
2022-07-25T08:28:33.483Z,0.90
2022-07-25T08:31:00.434Z,1.00
2022-07-25T08:33:27.631Z,0.77
2022-07-25T08:35:56.030Z,1.13
2022-07-25T08:38:24.722Z,1.15
2022-07-25T08:40:52.026Z,0.95
2022-07-25T08:43:19.424Z,0.90
2022-07-25T08:45:53.983Z,0.90
2022-07-25T08:48:32.942Z,0.95
2022-07-25T08:51:00.388Z,1.02
2022-07-25T08:53:33.091Z,0.93
2022-07-25T08:56:05.347Z,0.90
2022-07-25T08:58:34.963Z,1.08
2022-07-25T09:01:02.264Z,0.95
2022-07-25T09:03:29.079Z,0.80
2022-07-25T09:05:55.913Z,1.05
2022-07-25T09:08:22.771Z,1.45
2022-07-25T09:10:51.860Z,1.40
2022-07-25T09:13:20.415Z,1.38
2022-07-25T09:15:52.487Z,1.10
2022-07-25T09:18:23.973Z,1.00
2022-07-25T09:20:59.115Z,1.38
2022-07-25T09:23:37.369Z,1.35
2022-07-25T09:26:08.848Z,1.35
2022-07-25T09:28:47.215Z,1.00
2022-07-25T09:31:17.464Z,1.40
2022-07-25T09:33:55.236Z,1.50
2022-07-25T09:36:22.852Z,2.03
2022-07-25T09:38:57.621Z,1.48
2022-07-25T09:41:41.269Z,1.45
2022-07-25T09:44:39.546Z,1.40
2022-07-25T09:47:17.185Z,1.13
2022-07-25T09:49:45.309Z,1.10
2022-07-25T09:52:16.733Z,1.60
2022-07-25T09:54:44.014Z,1.10
2022-07-25T09:57:10.790Z,0.80
2022-07-25T09:59:38.103Z,1.20
2022-07-25T10:02:07.872Z,1.17
2022-07-25T10:04:59.811Z,1.08
2022-07-25T10:07:31.262Z,1.60
2022-07-25T10:10:00.211Z,1.65
2022-07-25T10:12:27.025Z,1.40
2022-07-25T10:15:13.265Z,1.20
2022-07-25T10:17:41.368Z,1.25
2022-07-25T10:20:10.319Z,1.30
2022-07-25T10:22:58.087Z,1.58
2022-07-25T10:25:25.571Z,1.10
2022-07-25T10:28:06.556Z,1.10
2022-07-25T10:30:38.488Z,0.90
2022-07-25T10:33:12.386Z,0.80
2022-07-25T10:35:39.756Z,1.05
2022-07-25T10:38:06.971Z,1.20
2022-07-25T10:40:34.967Z,0.90
2022-07-25T10:43:14.915Z,1.48
2022-07-25T10:45:49.780Z,1.88
2022-07-25T10:48:27.966Z,1.60
2022-07-25T10:51:09.641Z,1.27
2022-07-25T10:53:40.679Z,1.42
2022-07-25T10:56:13.209Z,1.50
2022-07-25T10:58:54.838Z,1.50
2022-07-25T11:01:26.545Z,0.88
2022-07-25T11:03:55.717Z,1.40
2022-07-25T11:06:37.503Z,1.80
2022-07-25T11:09:18.094Z,2.20
2022-07-25T11:11:50.304Z,1.45
2022-07-25T11:14:38.137Z,1.63
2022-07-25T11:19:53.347Z,1.90
2022-07-25T11:22:20.187Z,2.55
2022-07-25T11:24:47.732Z,2.13
2022-07-25T11:27:24.599Z,2.03
2022-07-25T11:29:51.876Z,1.48
2022-07-25T11:32:19.462Z,2.00
2022-07-25T11:34:52.470Z,2.35
2022-07-25T11:37:24.530Z,2.15
2022-07-25T11:39:52.911Z,1.73
2022-07-25T11:42:20.531Z,1.92
2022-07-25T11:44:51.863Z,2.07
2022-07-25T11:47:32.708Z,2.13
2022-07-25T11:50:04.739Z,2.35
2022-07-25T11:52:38.569Z,2.75
2022-07-25T11:55:11.626Z,2.47
2022-07-25T11:57:44.541Z,2.20
2022-07-25T12:00:17.341Z,2.25
2022-07-25T12:02:45.073Z,2.50
2022-07-25T12:05:18.160Z,2.10
2022-07-25T12:07:48.878Z,2.08
2022-07-25T12:10:21.785Z,2.38
2022-07-25T12:12:54.804Z,2.20
2022-07-25T12:15:27.778Z,2.20
2022-07-25T12:17:56.141Z,2.40
2022-07-25T12:20:43.420Z,2.13
2022-07-25T12:23:12.730Z,2.00
2022-07-25T12:25:44.525Z,2.13
2022-07-25T12:28:12.007Z,2.67
2022-07-25T12:30:40.423Z,2.05
2022-07-25T12:33:07.771Z,2.20
2022-07-25T12:35:34.683Z,2.30
2022-07-25T12:38:01.526Z,3.05
2022-07-25T12:40:28.479Z,2.38
2022-07-25T12:42:55.452Z,2.00
2022-07-25T12:45:24.305Z,1.98
2022-07-25T12:47:51.128Z,2.70
2022-07-25T12:50:18.538Z,2.15
2022-07-25T12:52:45.908Z,2.00
2022-07-25T12:55:16.629Z,1.80
2022-07-25T12:57:44.127Z,2.50
2022-07-25T13:00:17.308Z,1.73
2022-07-25T13:02:44.310Z,1.83
2022-07-25T13:05:11.410Z,2.38
2022-07-25T13:07:38.357Z,1.80
2022-07-25T13:10:06.588Z,1.50
2022-07-25T13:15:00.489Z,1.63
2022-07-25T13:17:28.020Z,2.05
2022-07-25T13:19:55.698Z,1.70
2022-07-25T13:22:22.537Z,1.50
2022-07-25T13:24:49.344Z,1.90
2022-07-25T13:27:18.833Z,2.17
2022-07-25T13:29:45.694Z,1.52
2022-07-25T13:32:12.769Z,1.88
2022-07-25T13:34:39.657Z,1.48
2022-07-25T13:37:06.417Z,2.13
2022-07-25T13:39:33.748Z,1.83
2022-07-25T13:42:00.635Z,2.17
2022-07-25T13:44:27.408Z,1.50
2022-07-25T13:46:54.229Z,1.67
2022-07-25T13:49:21.131Z,1.95
2022-07-25T13:51:48.079Z,1.77
2022-07-25T13:54:15.012Z,1.42
2022-07-25T13:56:42.544Z,1.45
2022-07-25T13:59:12.451Z,1.30
2022-07-25T14:01:46.049Z,1.50
2022-07-25T14:04:13.262Z,1.75
2022-07-25T14:06:42.363Z,1.40
2022-07-25T14:09:10.637Z,2.15
2022-07-25T14:11:37.750Z,1.50
2022-07-25T14:14:04.574Z,1.80
2022-07-25T14:16:34.014Z,1.45
2022-07-25T14:19:02.212Z,1.73
2022-07-25T14:23:56.241Z,1.35
2022-07-25T14:26:28.837Z,1.23
2022-07-25T14:28:56.498Z,1.67
2022-07-25T14:31:23.709Z,1.15
2022-07-25T14:33:50.571Z,1.05
2022-07-25T14:36:17.408Z,0.95
2022-07-25T14:38:47.255Z,0.90
2022-07-25T14:41:15.009Z,1.00
2022-07-25T14:43:41.978Z,1.08
2022-07-25T14:46:09.289Z,0.98
2022-07-25T14:48:37.739Z,1.00
2022-07-25T14:51:05.575Z,0.90
2022-07-25T14:53:32.611Z,0.80
2022-07-25T14:56:00.876Z,0.85
2022-07-25T14:58:27.742Z,1.20
2022-07-25T15:00:54.761Z,1.40
2022-07-25T15:03:21.727Z,0.82
2022-07-25T15:05:48.544Z,1.08
2022-07-25T15:08:16.376Z,1.40
2022-07-25T15:10:43.207Z,0.85
2022-07-25T15:15:57.703Z,0.93
2022-07-25T15:18:27.922Z,0.80
2022-07-25T15:20:55.457Z,0.60
2022-07-25T15:23:24.876Z,1.92
2022-07-25T15:26:08.090Z,0.77
2022-07-25T15:28:37.236Z,0.70
2022-07-25T15:31:04.999Z,1.30
2022-07-25T15:33:32.146Z,1.13
2022-07-25T15:35:58.974Z,0.95
2022-07-25T15:38:26.635Z,1.63
2022-07-25T15:40:53.402Z,1.00
2022-07-25T15:43:20.573Z,1.27
2022-07-25T15:45:47.517Z,1.20
2022-07-25T15:48:16.804Z,1.05
2022-07-25T15:50:45.969Z,0.80
2022-07-25T15:53:13.092Z,0.82
2022-07-25T15:55:41.253Z,0.77
2022-07-25T16:00:37.337Z,0.90
2022-07-25T16:03:04.712Z,0.82
2022-07-25T16:05:31.639Z,0.75
2022-07-25T16:08:00.979Z,1.58
2022-07-25T16:10:29.421Z,1.20
2022-07-25T16:12:56.223Z,1.15
2022-07-25T16:15:23.016Z,1.17
2022-07-25T16:17:50.692Z,0.88
2022-07-25T16:20:17.848Z,1.67
2022-07-25T16:22:45.411Z,0.75
2022-07-25T16:25:12.489Z,1.08
2022-07-25T16:27:39.320Z,1.27
2022-07-25T16:30:06.786Z,0.90
2022-07-25T16:32:33.780Z,1.10
2022-07-25T16:35:00.489Z,1.15
2022-07-25T16:37:27.323Z,1.35
2022-07-25T16:39:54.005Z,1.20
2022-07-25T16:42:20.770Z,0.93
2022-07-25T16:44:48.569Z,1.92
2022-07-25T16:47:16.402Z,1.00
2022-07-25T16:49:43.104Z,1.80
2022-07-25T16:52:09.857Z,1.23
2022-07-25T16:54:36.541Z,1.33
2022-07-25T16:57:03.629Z,1.83
2022-07-25T16:59:30.400Z,1.65
2022-07-25T17:01:57.244Z,2.03
2022-07-25T17:04:24.064Z,1.55
2022-07-25T17:06:51.050Z,1.33
2022-07-25T17:09:17.875Z,1.40
2022-07-25T17:11:44.627Z,1.85
2022-07-25T17:14:11.700Z,1.02
2022-07-25T17:16:40.384Z,1.33
2022-07-25T17:19:07.494Z,1.73
2022-07-25T17:21:34.595Z,1.75
2022-07-25T17:24:01.432Z,1.60
2022-07-25T17:26:28.242Z,2.00
2022-07-25T17:28:55.505Z,1.60
2022-07-25T17:31:24.380Z,1.77
2022-07-25T17:33:51.342Z,1.50
2022-07-25T17:36:18.876Z,1.98
2022-07-25T17:38:45.636Z,1.92
2022-07-25T17:41:12.379Z,2.08
2022-07-25T17:43:39.129Z,1.85
2022-07-25T17:46:06.204Z,1.50
2022-07-25T17:48:33.789Z,1.60
2022-07-25T17:51:00.572Z,1.80
2022-07-25T17:53:28.406Z,1.88
2022-07-25T17:55:55.230Z,1.60
2022-07-25T17:58:23.387Z,1.65
2022-07-25T18:00:50.415Z,2.10
2022-07-25T18:03:18.901Z,1.52
2022-07-25T18:05:45.730Z,1.60
2022-07-25T18:08:12.431Z,1.35
2022-07-25T18:10:39.212Z,1.30
2022-07-25T18:13:05.980Z,2.10
2022-07-25T18:15:32.808Z,1.60
2022-07-25T18:17:59.689Z,1.67
2022-07-25T18:20:28.075Z,1.33
2022-07-25T18:22:54.919Z,1.67
2022-07-25T18:25:21.627Z,0.98
2022-07-25T18:27:48.782Z,1.67
2022-07-25T18:30:16.837Z,1.30
2022-07-25T18:32:43.601Z,2.03
2022-07-25T18:35:11.263Z,1.40
2022-07-25T18:37:38.329Z,1.33
2022-07-25T18:40:07.621Z,1.35
2022-07-25T18:42:35.010Z,1.52
2022-07-25T18:45:02.443Z,1.70
2022-07-25T18:47:32.127Z,1.20
2022-07-25T18:49:59.517Z,1.38
2022-07-25T18:52:26.518Z,1.40
2022-07-25T18:54:53.506Z,1.50
2022-07-25T18:57:20.359Z,1.27
2022-07-25T18:59:48.019Z,2.20
2022-07-25T19:02:14.858Z,1.73
2022-07-25T19:04:42.378Z,1.73
2022-07-25T19:07:09.355Z,1.60
2022-07-25T19:09:36.247Z,1.58
2022-07-25T19:12:04.285Z,1.92
2022-07-25T19:14:31.071Z,1.40
2022-07-25T19:16:58.864Z,1.48
2022-07-25T19:19:26.940Z,1.27
2022-07-25T19:21:54.164Z,1.55
2022-07-25T19:24:21.366Z,1.48
2022-07-25T19:26:49.766Z,1.88
2022-07-25T19:29:17.021Z,1.90
2022-07-25T19:31:44.114Z,1.30
2022-07-25T19:34:11.718Z,1.70
2022-07-25T19:36:38.862Z,2.17
2022-07-25T19:39:06.437Z,2.35
2022-07-25T19:41:33.620Z,2.17
2022-07-25T19:44:00.456Z,2.58
2022-07-25T19:46:31.147Z,1.70
2022-07-25T19:48:58.430Z,2.08
2022-07-25T19:51:25.470Z,2.42
2022-07-25T19:53:52.321Z,1.98
2022-07-25T19:56:19.549Z,2.33
2022-07-25T19:58:47.404Z,1.65
2022-07-25T20:01:14.479Z,1.83
2022-07-25T20:03:42.964Z,2.40
2022-07-25T20:06:09.935Z,1.90
2022-07-25T20:08:39.455Z,2.45
2022-07-25T20:11:07.683Z,2.50
2022-07-25T20:13:35.513Z,1.63
2022-07-25T20:16:03.932Z,2.22
2022-07-25T20:18:30.856Z,2.50
2022-07-25T20:20:57.905Z,2.40
2022-07-25T20:23:25.845Z,2.55
2022-07-25T20:25:53.029Z,2.70
2022-07-25T20:28:20.269Z,2.28
2022-07-25T20:30:47.122Z,2.33
2022-07-25T20:33:14.026Z,2.33
2022-07-25T20:35:40.842Z,2.88
2022-07-25T20:38:09.998Z,1.98
2022-07-25T20:40:46.431Z,2.28
2022-07-25T20:45:42.302Z,3.00
2022-07-25T20:48:09.345Z,2.58
2022-07-25T20:50:37.652Z,2.17
2022-07-25T20:55:31.740Z,2.80
2022-07-25T20:57:59.544Z,2.92
2022-07-25T21:00:27.713Z,2.08
2022-07-25T21:02:55.303Z,2.22
2022-07-25T21:05:22.428Z,2.40
2022-07-25T21:07:49.398Z,3.25
2022-07-25T21:10:16.837Z,2.92
2022-07-25T21:12:45.259Z,2.33
2022-07-25T21:15:13.143Z,2.10
2022-07-25T21:17:41.630Z,2.75
2022-07-25T21:20:13.614Z,2.60
2022-07-25T21:22:40.919Z,2.53
2022-07-25T21:25:08.170Z,2.20
2022-07-25T21:27:37.210Z,2.30
2022-07-25T21:30:06.195Z,2.67
2022-07-25T21:32:34.241Z,2.28
2022-07-25T21:35:01.027Z,3.00
2022-07-25T21:37:27.778Z,3.03
2022-07-25T21:39:54.491Z,2.80
2022-07-25T21:42:21.774Z,2.30
2022-07-25T21:44:48.968Z,2.80
2022-07-25T21:47:15.723Z,2.78
2022-07-25T21:50:01.081Z,2.63
2022-07-25T21:52:30.098Z,2.50
2022-07-25T21:55:01.711Z,2.60
2022-07-25T21:57:28.487Z,2.63
2022-07-25T21:59:55.584Z,2.90
2022-07-25T22:02:25.657Z,2.60
2022-07-25T22:04:52.693Z,2.90
2022-07-25T22:07:19.703Z,2.28
2022-07-25T22:09:46.606Z,2.65
2022-07-25T22:12:14.811Z,2.72
2022-07-25T22:14:41.629Z,2.88
2022-07-25T22:17:09.212Z,2.58
2022-07-25T22:19:36.117Z,2.95
2022-07-25T22:22:05.756Z,2.60
2022-07-25T22:24:33.054Z,2.80
2022-07-25T22:26:59.972Z,3.22
2022-07-25T22:29:26.738Z,2.85
2022-07-25T22:31:53.495Z,3.33
2022-07-25T22:34:20.269Z,3.35
2022-07-25T22:36:47.072Z,2.53
2022-07-25T22:39:13.853Z,2.75
2022-07-25T22:41:40.554Z,3.15
2022-07-25T22:44:07.366Z,2.88
2022-07-25T22:46:34.639Z,2.90
2022-07-25T22:49:01.841Z,3.88
2022-07-25T22:51:29.610Z,3.42
2022-07-25T22:53:57.993Z,3.80
2022-07-25T22:56:25.349Z,3.63
2022-07-25T22:58:52.092Z,3.33
2022-07-25T23:01:19.195Z,3.50
2022-07-25T23:03:48.477Z,3.28
2022-07-25T23:06:15.655Z,3.63
2022-07-25T23:08:42.783Z,3.25
2022-07-25T23:11:09.594Z,3.58
2022-07-25T23:13:36.642Z,3.10
2022-07-25T23:16:04.648Z,3.97
2022-07-25T23:18:31.854Z,3.97
2022-07-25T23:20:59.119Z,3.90
2022-07-25T23:23:26.047Z,3.80
2022-07-25T23:25:52.816Z,3.08
2022-07-25T23:28:19.604Z,3.10
2022-07-25T23:30:46.373Z,4.25
2022-07-25T23:33:13.103Z,3.38
2022-07-25T23:35:39.908Z,3.70
2022-07-25T23:38:06.644Z,3.92
2022-07-25T23:40:33.522Z,2.80
2022-07-25T23:43:00.295Z,3.92
2022-07-25T23:45:28.160Z,3.80
2022-07-25T23:50:23.352Z,3.37
2022-07-25T23:52:53.459Z,3.07
2022-07-25T23:55:20.381Z,2.90
2022-07-25T23:57:47.115Z,3.35
